createdAt,value
2022-11-06T00:00:31.619Z,73.86
2022-11-06T00:03:00.033Z,74.34
2022-11-06T00:05:46.035Z,74.17
2022-11-06T00:08:14.511Z,74.20
2022-11-06T00:10:42.994Z,74.17
2022-11-06T00:13:12.246Z,74.36
2022-11-06T00:15:40.084Z,74.05
2022-11-06T00:18:08.001Z,73.75
2022-11-06T00:20:36.139Z,74.26
2022-11-06T00:23:03.987Z,74.54
2022-11-06T00:25:31.802Z,74.54
2022-11-06T00:27:59.669Z,74.64
2022-11-06T00:30:29.058Z,75.19
2022-11-06T00:32:57.276Z,74.97
2022-11-06T00:35:25.283Z,74.78
2022-11-06T00:37:53.148Z,74.80
2022-11-06T00:40:21.075Z,75.15
2022-11-06T00:42:48.870Z,75.07
2022-11-06T00:45:16.943Z,75.00
2022-11-06T00:47:46.232Z,75.49
2022-11-06T00:50:14.112Z,75.14
2022-11-06T00:52:41.940Z,75.57
2022-11-06T00:55:10.089Z,75.69
2022-11-06T00:57:38.155Z,75.24
2022-11-06T01:00:07.227Z,75.92
2022-11-06T01:02:35.137Z,75.44
2022-11-06T01:05:04.671Z,75.39
2022-11-06T01:07:32.522Z,75.84
2022-11-06T01:10:00.557Z,75.56
2022-11-06T01:12:28.372Z,75.56
2022-11-06T01:14:56.267Z,75.77
2022-11-06T01:17:24.125Z,75.70
2022-11-06T01:19:51.990Z,75.60
2022-11-06T01:22:21.278Z,75.88
2022-11-06T01:24:49.220Z,75.65
2022-11-06T01:27:32.354Z,76.03
2022-11-06T01:30:00.621Z,76.39
2022-11-06T01:32:28.416Z,76.04
2022-11-06T01:34:56.287Z,75.68
2022-11-06T01:37:25.457Z,75.56
2022-11-06T01:39:53.396Z,75.74
2022-11-06T01:42:21.866Z,75.68
2022-11-06T01:45:06.696Z,76.09
2022-11-06T01:47:34.707Z,75.87
2022-11-06T01:50:05.648Z,76.11
2022-11-06T01:52:35.565Z,76.02
2022-11-06T01:55:07.017Z,76.25
2022-11-06T01:57:35.120Z,75.70
2022-11-06T02:00:03.460Z,75.87
2022-11-06T02:02:31.696Z,76.10
2022-11-06T02:04:59.642Z,76.38
2022-11-06T02:07:27.623Z,75.88
2022-11-06T02:09:57.019Z,76.17
2022-11-06T02:12:31.446Z,76.24
2022-11-06T02:15:01.732Z,75.93
2022-11-06T02:17:37.205Z,76.16
2022-11-06T02:20:07.884Z,76.46
2022-11-06T02:22:52.251Z,76.03
2022-11-06T02:25:27.256Z,76.16
2022-11-06T02:28:03.124Z,75.76
2022-11-06T02:30:32.911Z,75.47
2022-11-06T02:33:02.341Z,75.29
2022-11-06T02:35:32.242Z,74.71
2022-11-06T02:38:02.655Z,74.89
2022-11-06T02:40:33.217Z,74.83
2022-11-06T02:43:05.467Z,74.76
2022-11-06T02:45:35.279Z,74.55
2022-11-06T02:48:06.724Z,74.62
2022-11-06T02:50:36.624Z,75.21
2022-11-06T02:53:06.129Z,75.36
2022-11-06T02:55:36.608Z,75.06
2022-11-06T02:58:09.056Z,75.53
2022-11-06T03:00:38.279Z,75.67
2022-11-06T03:03:07.620Z,75.55
2022-11-06T03:05:37.189Z,75.43
2022-11-06T03:08:09.476Z,75.47
2022-11-06T03:10:41.627Z,75.58
2022-11-06T03:13:15.750Z,75.91
2022-11-06T03:15:47.152Z,75.49
2022-11-06T03:18:18.409Z,75.68
2022-11-06T03:20:55.130Z,75.51
2022-11-06T03:23:25.738Z,75.81
2022-11-06T03:25:56.082Z,75.88
2022-11-06T03:28:29.410Z,75.95
2022-11-06T03:30:59.594Z,75.53
2022-11-06T03:33:31.594Z,75.64
2022-11-06T03:36:02.583Z,75.79
2022-11-06T03:38:32.630Z,75.32
2022-11-06T03:41:02.857Z,75.92
2022-11-06T03:43:35.644Z,75.89
2022-11-06T03:46:05.498Z,75.54
2022-11-06T03:48:35.415Z,75.77
2022-11-06T03:51:06.430Z,75.87
2022-11-06T03:53:38.056Z,76.10
2022-11-06T03:56:08.951Z,75.73
2022-11-06T03:58:40.655Z,75.91
2022-11-06T04:01:10.725Z,76.34
2022-11-06T04:03:40.525Z,75.66
2022-11-06T04:06:11.518Z,75.96
2022-11-06T04:08:57.348Z,75.83
2022-11-06T04:11:44.048Z,75.83
2022-11-06T04:14:14.922Z,75.82
2022-11-06T04:16:46.245Z,75.53
2022-11-06T04:19:15.268Z,75.77
2022-11-06T04:21:49.477Z,74.95
2022-11-06T04:24:41.763Z,75.12
2022-11-06T04:27:16.171Z,75.70
2022-11-06T04:29:49.894Z,75.80
2022-11-06T04:32:20.702Z,75.66
2022-11-06T04:34:51.843Z,75.89
2022-11-06T04:37:22.215Z,75.71
2022-11-06T04:39:55.724Z,76.01
2022-11-06T04:42:28.019Z,75.88
2022-11-06T04:44:59.800Z,75.79
2022-11-06T04:47:28.492Z,76.03
2022-11-06T04:49:59.052Z,76.29
2022-11-06T04:52:28.204Z,76.72
2022-11-06T04:54:57.070Z,76.00
2022-11-06T04:57:25.375Z,76.26
2022-11-06T04:59:53.864Z,76.46
2022-11-06T05:02:23.223Z,76.74
2022-11-06T05:04:51.284Z,76.61
2022-11-06T05:07:19.151Z,77.09
2022-11-06T05:09:46.973Z,76.32
2022-11-06T05:12:14.788Z,77.22
2022-11-06T05:14:42.594Z,76.28
2022-11-06T05:17:10.631Z,76.68
2022-11-06T05:19:39.873Z,77.09
2022-11-06T05:22:25.040Z,76.98
2022-11-06T05:24:53.132Z,76.91
2022-11-06T05:27:20.952Z,77.32
2022-11-06T05:29:48.796Z,78.13
2022-11-06T05:32:16.607Z,77.58
2022-11-06T05:34:45.928Z,78.18
2022-11-06T05:37:14.006Z,77.30
2022-11-06T05:39:42.224Z,77.60
2022-11-06T05:42:10.534Z,77.26
2022-11-06T05:44:38.756Z,77.12
2022-11-06T05:47:06.571Z,77.55
2022-11-06T05:49:34.515Z,77.79
2022-11-06T05:52:03.719Z,77.30
2022-11-06T05:54:31.577Z,78.21
2022-11-06T05:56:59.440Z,78.35
2022-11-06T05:59:27.501Z,78.18
2022-11-06T06:01:55.704Z,78.08
2022-11-06T06:04:23.667Z,78.77
2022-11-06T06:06:51.496Z,78.78
2022-11-06T06:09:20.676Z,78.37
2022-11-06T06:11:51.367Z,78.30
2022-11-06T06:14:19.637Z,78.70
2022-11-06T06:16:47.537Z,79.52
2022-11-06T06:19:15.833Z,79.27
2022-11-06T06:21:43.742Z,79.40
2022-11-06T06:24:11.640Z,79.04
2022-11-06T06:26:41.026Z,78.99
2022-11-06T06:29:08.935Z,79.38
2022-11-06T06:31:36.826Z,79.64
2022-11-06T06:34:04.698Z,80.01
2022-11-06T06:36:32.537Z,79.42
2022-11-06T06:39:00.537Z,79.33
2022-11-06T06:41:28.345Z,78.76
2022-11-06T06:43:57.593Z,78.95
2022-11-06T06:46:25.555Z,79.39
2022-11-06T06:48:53.425Z,79.65
2022-11-06T06:51:24.217Z,79.49
2022-11-06T06:53:52.710Z,78.92
2022-11-06T06:56:20.603Z,79.07
2022-11-06T06:58:48.603Z,76.02
2022-11-06T07:01:17.890Z,71.86
2022-11-06T07:03:45.748Z,68.27
2022-11-06T07:06:13.727Z,64.78
2022-11-06T07:08:41.523Z,61.56
2022-11-06T07:11:10.098Z,59.21
2022-11-06T07:13:38.011Z,58.25
2022-11-06T07:16:06.356Z,56.90
2022-11-06T07:18:36.130Z,55.57
2022-11-06T07:21:05.478Z,55.13
2022-11-06T07:23:33.640Z,53.70
2022-11-06T07:26:01.514Z,51.85
2022-11-06T07:28:29.413Z,51.25
2022-11-06T07:30:59.172Z,51.32
2022-11-06T07:33:27.018Z,49.61
2022-11-06T07:35:56.201Z,51.00
2022-11-06T07:38:24.030Z,48.78
2022-11-06T07:40:51.836Z,47.28
2022-11-06T07:43:19.824Z,48.19
2022-11-06T07:45:47.716Z,46.69
2022-11-06T07:48:16.514Z,47.57
2022-11-06T07:50:45.431Z,46.06
2022-11-06T07:53:14.983Z,48.56
2022-11-06T07:55:48.795Z,45.07
2022-11-06T07:58:17.049Z,47.39
2022-11-06T08:00:48.498Z,45.90
2022-11-06T08:03:17.088Z,44.82
2022-11-06T08:05:45.549Z,45.62
2022-11-06T08:08:15.106Z,45.37
2022-11-06T08:10:43.580Z,42.79
2022-11-06T08:13:11.821Z,41.73
2022-11-06T08:15:40.213Z,42.68
2022-11-06T08:18:09.051Z,40.49
2022-11-06T08:20:37.432Z,38.90
2022-11-06T08:23:06.297Z,40.38
2022-11-06T08:25:36.078Z,39.31
2022-11-06T08:28:04.661Z,39.11
2022-11-06T08:30:33.020Z,37.03
2022-11-06T08:33:01.957Z,34.97
2022-11-06T08:35:29.927Z,35.74
2022-11-06T08:37:57.742Z,38.12
2022-11-06T08:40:30.677Z,36.43
2022-11-06T08:43:03.860Z,35.07
2022-11-06T08:45:32.352Z,34.66
2022-11-06T08:48:02.197Z,32.43
2022-11-06T08:50:30.047Z,32.67
2022-11-06T08:52:57.889Z,32.50
2022-11-06T08:55:26.453Z,33.45
2022-11-06T08:57:55.250Z,38.35
2022-11-06T09:00:24.832Z,35.93
2022-11-06T09:02:52.756Z,37.08
2022-11-06T09:05:20.619Z,34.29
2022-11-06T09:07:48.454Z,34.55
2022-11-06T09:10:16.839Z,36.09
2022-11-06T09:12:45.373Z,38.40
2022-11-06T09:15:13.176Z,35.36
2022-11-06T09:17:45.339Z,36.81
2022-11-06T09:20:13.870Z,37.52
2022-11-06T09:22:42.318Z,41.92
2022-11-06T09:25:10.579Z,44.90
2022-11-06T09:27:45.057Z,47.86
2022-11-06T09:30:14.553Z,48.69
2022-11-06T09:32:47.805Z,50.63
2022-11-06T09:35:15.976Z,52.93
2022-11-06T09:37:44.861Z,55.37
2022-11-06T09:40:19.108Z,56.74
2022-11-06T09:42:51.522Z,57.51
2022-11-06T09:45:22.751Z,58.25
2022-11-06T09:47:55.380Z,58.50
2022-11-06T09:50:26.823Z,58.86
2022-11-06T09:53:04.628Z,59.22
2022-11-06T09:55:36.761Z,58.94
2022-11-06T09:58:10.803Z,58.31
2022-11-06T10:00:39.495Z,59.40
2022-11-06T10:03:13.501Z,58.82
2022-11-06T10:05:42.227Z,56.70
2022-11-06T10:08:15.332Z,51.67
2022-11-06T10:10:47.661Z,45.33
2022-11-06T10:13:22.186Z,41.29
2022-11-06T10:15:53.986Z,44.29
2022-11-06T10:18:30.425Z,42.09
2022-11-06T10:21:05.469Z,36.98
2022-11-06T10:23:39.056Z,35.52
2022-11-06T10:26:10.753Z,36.41
2022-11-06T10:28:47.550Z,37.73
2022-11-06T10:31:21.798Z,39.89
2022-11-06T10:33:56.210Z,42.98
2022-11-06T10:36:26.024Z,44.97
2022-11-06T10:38:56.069Z,47.93
2022-11-06T10:41:25.583Z,45.23
2022-11-06T10:43:54.948Z,44.20
2022-11-06T10:46:27.836Z,42.39
2022-11-06T10:48:59.318Z,40.50
2022-11-06T10:51:41.818Z,41.34
2022-11-06T10:54:20.299Z,43.26
2022-11-06T10:56:56.975Z,42.22
2022-11-06T10:59:25.149Z,41.81
2022-11-06T11:01:53.096Z,38.32
2022-11-06T11:04:22.407Z,39.47
2022-11-06T11:06:50.240Z,42.29
2022-11-06T11:09:28.692Z,44.54
2022-11-06T11:11:57.295Z,44.73
2022-11-06T11:14:26.032Z,46.01
2022-11-06T11:16:54.309Z,46.79
2022-11-06T11:19:27.886Z,47.59
2022-11-06T11:21:57.234Z,49.96
2022-11-06T11:24:29.197Z,51.69
2022-11-06T11:27:00.930Z,46.19
2022-11-06T11:29:30.712Z,39.26
2022-11-06T11:32:00.611Z,39.53
2022-11-06T11:34:31.784Z,43.73
2022-11-06T11:37:01.092Z,45.73
2022-11-06T11:39:30.851Z,47.36
2022-11-06T11:42:13.555Z,50.07
2022-11-06T11:44:41.640Z,52.03
2022-11-06T11:47:20.600Z,52.63
2022-11-06T11:49:49.954Z,50.52
2022-11-06T11:52:20.179Z,51.37
2022-11-06T11:54:49.425Z,52.51
2022-11-06T11:57:19.493Z,53.58
2022-11-06T11:59:48.321Z,54.07
2022-11-06T12:02:27.691Z,52.10
2022-11-06T12:04:59.032Z,44.51
2022-11-06T12:07:28.130Z,45.19
2022-11-06T12:09:56.007Z,47.79
2022-11-06T12:12:25.003Z,49.11
2022-11-06T12:15:13.603Z,51.64
2022-11-06T12:17:44.244Z,51.87
2022-11-06T12:20:18.021Z,51.65
2022-11-06T12:22:47.661Z,52.42
2022-11-06T12:25:17.625Z,51.79
2022-11-06T12:27:47.577Z,51.41
2022-11-06T12:30:17.488Z,49.63
2022-11-06T12:33:02.435Z,46.44
2022-11-06T12:35:32.609Z,47.23
2022-11-06T12:38:08.068Z,48.48
2022-11-06T12:40:38.786Z,48.96
2022-11-06T12:43:12.971Z,49.51
2022-11-06T12:45:48.773Z,50.74
2022-11-06T12:48:26.611Z,51.15
2022-11-06T12:51:00.481Z,51.45
2022-11-06T12:53:37.963Z,51.90
2022-11-06T12:56:13.887Z,52.26
2022-11-06T12:58:52.386Z,52.94
2022-11-06T13:01:26.316Z,53.18
2022-11-06T13:04:04.529Z,53.89
2022-11-06T13:06:40.253Z,54.01
2022-11-06T13:09:12.444Z,54.63
2022-11-06T13:11:43.666Z,54.64
2022-11-06T13:14:16.551Z,55.49
2022-11-06T13:16:49.072Z,55.13
2022-11-06T13:19:22.322Z,54.88
2022-11-06T13:22:06.120Z,54.99
2022-11-06T13:24:37.774Z,55.12
2022-11-06T13:27:09.940Z,55.39
2022-11-06T13:29:38.678Z,55.46
2022-11-06T13:32:10.492Z,55.73
2022-11-06T13:34:39.564Z,55.29
2022-11-06T13:37:13.467Z,55.85
2022-11-06T13:39:43.790Z,55.65
2022-11-06T13:42:21.216Z,54.73
2022-11-06T13:44:49.671Z,54.39
2022-11-06T13:47:19.308Z,54.36
2022-11-06T13:49:52.784Z,54.40
2022-11-06T13:52:26.881Z,54.63
2022-11-06T13:55:03.610Z,54.80
2022-11-06T13:57:40.779Z,54.76
2022-11-06T14:00:13.760Z,54.95
2022-11-06T14:03:02.667Z,54.84
2022-11-06T14:05:45.320Z,55.20
2022-11-06T14:08:17.446Z,55.46
2022-11-06T14:10:51.083Z,54.47
2022-11-06T14:13:24.402Z,54.90
2022-11-06T14:15:59.699Z,54.83
2022-11-06T14:18:27.866Z,55.09
2022-11-06T14:21:10.579Z,55.10
2022-11-06T14:23:53.784Z,55.21
2022-11-06T14:26:36.711Z,55.11
2022-11-06T14:29:19.626Z,55.53
2022-11-06T14:32:10.254Z,55.14
2022-11-06T14:34:38.973Z,55.26
2022-11-06T14:37:31.395Z,55.15
2022-11-06T14:40:07.429Z,55.34
2022-11-06T14:42:37.482Z,55.23
2022-11-06T14:45:11.915Z,55.26
2022-11-06T14:47:40.994Z,55.29
2022-11-06T14:50:23.766Z,55.04
2022-11-06T14:52:55.653Z,54.96
2022-11-06T14:55:28.305Z,54.96
2022-11-06T14:57:58.317Z,55.13
2022-11-06T15:00:47.079Z,54.91
2022-11-06T15:03:21.403Z,54.62
2022-11-06T15:05:52.787Z,53.91
2022-11-06T15:08:39.482Z,54.12
2022-11-06T15:11:09.187Z,53.92
2022-11-06T15:13:36.991Z,53.95
2022-11-06T15:16:07.689Z,53.75
2022-11-06T15:18:39.817Z,53.91
2022-11-06T15:21:09.369Z,53.89
2022-11-06T15:23:41.710Z,54.22
2022-11-06T15:26:18.500Z,54.04
2022-11-06T15:28:48.158Z,54.22
2022-11-06T15:31:18.076Z,54.21
2022-11-06T15:33:55.908Z,54.57
2022-11-06T15:36:24.548Z,54.86
2022-11-06T15:38:54.868Z,54.53
2022-11-06T15:41:25.654Z,54.44
2022-11-06T15:43:55.639Z,54.30
2022-11-06T15:46:25.006Z,54.23
2022-11-06T15:49:10.079Z,54.58
2022-11-06T15:51:39.347Z,54.13
2022-11-06T15:54:07.626Z,54.72
2022-11-06T15:56:36.977Z,56.19
2022-11-06T15:59:05.899Z,56.94
2022-11-06T16:01:34.492Z,57.80
2022-11-06T16:04:05.592Z,59.02
2022-11-06T16:06:37.352Z,59.76
2022-11-06T16:09:05.556Z,62.31
2022-11-06T16:11:33.594Z,64.80
2022-11-06T16:14:02.819Z,65.71
2022-11-06T16:16:33.742Z,67.36
2022-11-06T16:19:02.549Z,68.68
2022-11-06T16:21:31.827Z,69.37
2022-11-06T16:24:00.837Z,69.71
2022-11-06T16:26:36.413Z,70.23
2022-11-06T16:29:09.993Z,70.65
2022-11-06T16:31:38.212Z,71.64
2022-11-06T16:34:06.960Z,71.69
2022-11-06T16:36:50.129Z,71.79
2022-11-06T16:39:49.826Z,72.75
2022-11-06T16:42:29.151Z,73.50
2022-11-06T16:45:10.021Z,73.02
2022-11-06T16:47:38.030Z,73.17
2022-11-06T16:50:26.104Z,73.39
2022-11-06T16:52:55.571Z,72.89
2022-11-06T16:55:26.739Z,73.03
2022-11-06T16:57:57.042Z,72.60
2022-11-06T17:00:28.045Z,72.80
2022-11-06T17:02:56.846Z,72.00
2022-11-06T17:05:29.025Z,71.76
2022-11-06T17:08:08.269Z,71.26
2022-11-06T17:10:38.233Z,71.89
2022-11-06T17:13:14.681Z,71.17
2022-11-06T17:15:43.014Z,71.05
2022-11-06T17:18:17.771Z,69.89
2022-11-06T17:20:51.184Z,68.18
2022-11-06T17:23:21.169Z,67.32
2022-11-06T17:25:52.328Z,66.64
2022-11-06T17:28:23.123Z,66.32
2022-11-06T17:30:51.270Z,66.25
2022-11-06T17:33:21.099Z,66.02
2022-11-06T17:35:50.226Z,65.02
2022-11-06T17:38:18.523Z,65.43
2022-11-06T17:40:47.830Z,65.16
2022-11-06T17:43:18.355Z,64.76
2022-11-06T17:45:49.704Z,64.56
2022-11-06T17:48:18.349Z,64.43
2022-11-06T17:51:03.569Z,63.96
2022-11-06T17:53:32.432Z,63.88
2022-11-06T17:56:04.496Z,63.49
2022-11-06T17:58:32.588Z,62.86
2022-11-06T18:01:05.424Z,63.25
2022-11-06T18:03:36.475Z,62.66
2022-11-06T18:06:26.629Z,63.02
2022-11-06T18:08:57.969Z,62.59
2022-11-06T18:11:42.179Z,62.65
2022-11-06T18:14:10.924Z,62.55
2022-11-06T18:16:43.605Z,62.13
2022-11-06T18:19:13.366Z,62.35
2022-11-06T18:21:41.188Z,62.53
2022-11-06T18:24:09.257Z,62.17
2022-11-06T18:26:38.432Z,61.78
2022-11-06T18:29:06.874Z,62.15
2022-11-06T18:31:34.850Z,61.67
2022-11-06T18:34:02.870Z,61.85
2022-11-06T18:36:32.202Z,61.87
2022-11-06T18:39:00.050Z,61.56
2022-11-06T18:41:27.857Z,61.72
2022-11-06T18:43:57.986Z,61.92
2022-11-06T18:46:27.212Z,61.96
2022-11-06T18:48:56.159Z,61.97
2022-11-06T18:51:34.380Z,61.98
2022-11-06T18:54:05.478Z,62.01
2022-11-06T18:56:35.748Z,61.66
2022-11-06T18:59:05.363Z,62.09
2022-11-06T19:01:34.620Z,62.07
2022-11-06T19:04:04.323Z,61.88
2022-11-06T19:06:32.558Z,61.29
2022-11-06T19:09:00.402Z,61.38
2022-11-06T19:11:28.393Z,61.48
2022-11-06T19:13:56.209Z,61.76
2022-11-06T19:16:25.523Z,61.04
2022-11-06T19:21:29.590Z,61.42
2022-11-06T19:24:05.646Z,61.23
2022-11-06T19:26:35.192Z,61.43
2022-11-06T19:29:03.358Z,61.70
2022-11-06T19:31:45.091Z,61.52
2022-11-06T19:34:13.643Z,61.61
2022-11-06T19:36:41.712Z,61.81
2022-11-06T19:39:09.510Z,61.68
2022-11-06T19:41:37.448Z,62.29
2022-11-06T19:44:05.838Z,61.99
2022-11-06T19:46:36.068Z,61.88
2022-11-06T19:49:06.188Z,62.60
2022-11-06T19:51:34.352Z,62.52
2022-11-06T19:54:04.951Z,62.71
2022-11-06T19:56:33.124Z,62.77
2022-11-06T19:59:01.938Z,62.99
2022-11-06T20:01:29.938Z,63.25
2022-11-06T20:03:59.245Z,62.72
2022-11-06T20:06:29.160Z,63.06
2022-11-06T20:09:01.353Z,63.01
2022-11-06T20:11:29.432Z,63.15
2022-11-06T20:13:57.222Z,63.25
2022-11-06T20:16:25.201Z,63.41
2022-11-06T20:18:53.601Z,63.38
2022-11-06T20:21:22.204Z,63.63
2022-11-06T20:23:51.395Z,63.85
2022-11-06T20:26:19.697Z,63.88
2022-11-06T20:28:48.431Z,63.87
2022-11-06T20:31:18.488Z,64.38
2022-11-06T20:33:46.782Z,64.72
2022-11-06T20:36:16.553Z,64.98
2022-11-06T20:38:45.620Z,64.96
2022-11-06T20:41:15.212Z,65.02
2022-11-06T20:43:43.646Z,65.10
2022-11-06T20:46:13.092Z,65.23
2022-11-06T20:48:40.998Z,65.16
2022-11-06T20:51:09.774Z,65.51
2022-11-06T20:53:39.083Z,66.62
2022-11-06T20:56:07.742Z,66.51
2022-11-06T20:58:37.172Z,66.70
2022-11-06T21:01:05.865Z,67.14
2022-11-06T21:03:34.202Z,67.06
2022-11-06T21:06:02.184Z,67.00
2022-11-06T21:08:30.351Z,67.03
2022-11-06T21:11:04.870Z,67.29
2022-11-06T21:13:34.983Z,67.13
2022-11-06T21:16:05.157Z,67.16
2022-11-06T21:18:35.521Z,67.36
2022-11-06T21:21:03.720Z,67.40
2022-11-06T21:23:31.606Z,67.73
2022-11-06T21:26:03.923Z,67.68
2022-11-06T21:28:33.292Z,67.54
2022-11-06T21:31:01.213Z,68.07
2022-11-06T21:33:30.469Z,68.01
2022-11-06T21:36:05.118Z,68.46
2022-11-06T21:38:33.516Z,68.36
2022-11-06T21:41:01.485Z,68.64
2022-11-06T21:43:29.649Z,68.81
2022-11-06T21:45:57.489Z,68.83
2022-11-06T21:48:45.339Z,68.82
2022-11-06T21:51:15.387Z,69.33
2022-11-06T21:54:00.604Z,69.78
2022-11-06T21:56:28.632Z,69.56
2022-11-06T21:58:57.842Z,69.82
2022-11-06T22:01:26.152Z,70.18
2022-11-06T22:03:54.268Z,70.32
2022-11-06T22:06:25.109Z,70.60
2022-11-06T22:08:53.681Z,70.85
2022-11-06T22:11:23.575Z,70.92
2022-11-06T22:13:52.244Z,70.97
2022-11-06T22:16:21.431Z,71.35
2022-11-06T22:18:49.545Z,71.37
2022-11-06T22:21:21.107Z,71.34
2022-11-06T22:23:50.681Z,71.37
2022-11-06T22:26:22.959Z,71.59
2022-11-06T22:28:53.569Z,71.60
2022-11-06T22:31:21.633Z,71.54
2022-11-06T22:33:53.720Z,72.01
2022-11-06T22:36:23.492Z,71.82
2022-11-06T22:38:53.235Z,72.09
2022-11-06T22:41:22.413Z,71.93
2022-11-06T22:43:50.628Z,72.57
2022-11-06T22:46:20.637Z,72.17
2022-11-06T22:51:57.044Z,72.51
2022-11-06T22:54:29.926Z,72.98
2022-11-06T22:57:01.443Z,73.07
2022-11-06T22:59:29.685Z,73.01
2022-11-06T23:01:57.709Z,72.91
2022-11-06T23:04:26.258Z,73.28
2022-11-06T23:06:55.619Z,73.36
2022-11-06T23:09:30.114Z,73.04
2022-11-06T23:11:58.562Z,73.48
2022-11-06T23:14:26.787Z,73.69
2022-11-06T23:17:00.833Z,73.85
2022-11-06T23:19:30.820Z,74.21
2022-11-06T23:22:15.717Z,74.01
2022-11-06T23:24:45.435Z,73.74
2022-11-06T23:27:13.507Z,73.82
2022-11-06T23:29:41.381Z,73.68
2022-11-06T23:32:11.568Z,73.79
2022-11-06T23:34:40.934Z,73.58
2022-11-06T23:37:09.024Z,73.68
2022-11-06T23:39:37.132Z,73.48
2022-11-06T23:42:06.540Z,73.67
2022-11-06T23:44:51.813Z,73.94
2022-11-06T23:47:19.930Z,73.86
2022-11-06T23:49:47.848Z,73.75
2022-11-06T23:52:15.874Z,74.01
2022-11-06T23:54:44.032Z,73.57
2022-11-06T23:57:13.795Z,73.87
2022-11-06T23:59:41.843Z,73.81
